sensor_id;sensor_type;location;lat;lon;timestamp;temperature;humidity
7218;DHT22;3650;53.580;10.094;2022-09-02T00:01:31;17.00;54.80
7218;DHT22;3650;53.580;10.094;2022-09-02T00:04:00;17.00;54.60
7218;DHT22;3650;53.580;10.094;2022-09-02T00:06:29;17.00;54.80
7218;DHT22;3650;53.580;10.094;2022-09-02T00:08:58;16.90;54.70
7218;DHT22;3650;53.580;10.094;2022-09-02T00:11:27;16.90;54.60
7218;DHT22;3650;53.580;10.094;2022-09-02T00:13:55;16.90;54.60
7218;DHT22;3650;53.580;10.094;2022-09-02T00:16:23;16.90;55.50
7218;DHT22;3650;53.580;10.094;2022-09-02T00:18:50;16.90;55.60
7218;DHT22;3650;53.580;10.094;2022-09-02T00:21:19;16.90;55.10
7218;DHT22;3650;53.580;10.094;2022-09-02T00:23:46;16.80;55.30
7218;DHT22;3650;53.580;10.094;2022-09-02T00:26:14;16.80;55.50
7218;DHT22;3650;53.580;10.094;2022-09-02T00:28:41;16.80;55.50
7218;DHT22;3650;53.580;10.094;2022-09-02T00:31:08;16.80;55.60
7218;DHT22;3650;53.580;10.094;2022-09-02T00:33:35;16.80;55.50
7218;DHT22;3650;53.580;10.094;2022-09-02T00:36:03;16.80;55.50
7218;DHT22;3650;53.580;10.094;2022-09-02T00:38:31;16.80;55.60
7218;DHT22;3650;53.580;10.094;2022-09-02T00:41:00;16.70;55.50
7218;DHT22;3650;53.580;10.094;2022-09-02T00:43:44;16.70;55.40
7218;DHT22;3650;53.580;10.094;2022-09-02T00:46:13;16.70;55.50
7218;DHT22;3650;53.580;10.094;2022-09-02T00:48:44;16.70;55.40
7218;DHT22;3650;53.580;10.094;2022-09-02T00:51:12;16.70;55.40
7218;DHT22;3650;53.580;10.094;2022-09-02T00:53:41;16.60;55.30
7218;DHT22;3650;53.580;10.094;2022-09-02T00:56:13;16.60;56.20
7218;DHT22;3650;53.580;10.094;2022-09-02T00:58:42;16.60;56.70
7218;DHT22;3650;53.580;10.094;2022-09-02T01:01:09;16.60;56.70
7218;DHT22;3650;53.580;10.094;2022-09-02T01:03:38;16.50;57.30
7218;DHT22;3650;53.580;10.094;2022-09-02T01:06:06;16.50;57.50
7218;DHT22;3650;53.580;10.094;2022-09-02T01:08:35;16.50;57.10
7218;DHT22;3650;53.580;10.094;2022-09-02T01:11:04;16.40;57.50
7218;DHT22;3650;53.580;10.094;2022-09-02T01:13:36;16.40;57.90
7218;DHT22;3650;53.580;10.094;2022-09-02T01:16:10;16.40;57.60
7218;DHT22;3650;53.580;10.094;2022-09-02T01:18:48;16.40;57.80
7218;DHT22;3650;53.580;10.094;2022-09-02T01:21:15;16.40;57.70
7218;DHT22;3650;53.580;10.094;2022-09-02T01:23:44;16.30;57.50
7218;DHT22;3650;53.580;10.094;2022-09-02T01:26:12;16.30;57.70
7218;DHT22;3650;53.580;10.094;2022-09-02T01:28:39;16.30;57.70
7218;DHT22;3650;53.580;10.094;2022-09-02T01:31:06;16.30;58.00
7218;DHT22;3650;53.580;10.094;2022-09-02T01:33:33;16.30;58.10
7218;DHT22;3650;53.580;10.094;2022-09-02T01:36:00;16.30;58.00
7218;DHT22;3650;53.580;10.094;2022-09-02T01:38:29;16.30;58.00
7218;DHT22;3650;53.580;10.094;2022-09-02T01:40:57;16.20;58.10
7218;DHT22;3650;53.580;10.094;2022-09-02T01:43:26;16.20;58.30
7218;DHT22;3650;53.580;10.094;2022-09-02T01:45:54;16.30;58.30
7218;DHT22;3650;53.580;10.094;2022-09-02T01:48:22;16.20;58.10
7218;DHT22;3650;53.580;10.094;2022-09-02T01:50:53;16.20;58.50
7218;DHT22;3650;53.580;10.094;2022-09-02T01:56:45;16.20;58.30
7218;DHT22;3650;53.580;10.094;2022-09-02T01:59:12;16.20;58.80
7218;DHT22;3650;53.580;10.094;2022-09-02T02:01:42;16.20;58.80
7218;DHT22;3650;53.580;10.094;2022-09-02T02:04:10;16.10;58.50
7218;DHT22;3650;53.580;10.094;2022-09-02T02:06:39;16.10;58.70
7218;DHT22;3650;53.580;10.094;2022-09-02T02:09:06;16.10;58.70
7218;DHT22;3650;53.580;10.094;2022-09-02T02:11:33;16.10;58.80
7218;DHT22;3650;53.580;10.094;2022-09-02T02:14:01;16.10;59.10
7218;DHT22;3650;53.580;10.094;2022-09-02T02:16:28;16.10;59.20
7218;DHT22;3650;53.580;10.094;2022-09-02T02:18:54;16.10;59.10
7218;DHT22;3650;53.580;10.094;2022-09-02T02:21:21;16.00;59.10
7218;DHT22;3650;53.580;10.094;2022-09-02T02:23:48;16.00;59.20
7218;DHT22;3650;53.580;10.094;2022-09-02T02:26:15;16.00;59.40
7218;DHT22;3650;53.580;10.094;2022-09-02T02:28:42;16.00;59.70
7218;DHT22;3650;53.580;10.094;2022-09-02T02:31:10;16.00;59.80
7218;DHT22;3650;53.580;10.094;2022-09-02T02:33:37;16.00;59.90
7218;DHT22;3650;53.580;10.094;2022-09-02T02:36:06;15.90;60.00
7218;DHT22;3650;53.580;10.094;2022-09-02T02:38:36;15.90;60.10
7218;DHT22;3650;53.580;10.094;2022-09-02T02:41:04;16.00;60.30
7218;DHT22;3650;53.580;10.094;2022-09-02T02:43:31;15.90;60.20
7218;DHT22;3650;53.580;10.094;2022-09-02T02:45:58;15.90;60.30
7218;DHT22;3650;53.580;10.094;2022-09-02T02:48:26;15.80;60.90
7218;DHT22;3650;53.580;10.094;2022-09-02T02:50:53;15.80;60.90
7218;DHT22;3650;53.580;10.094;2022-09-02T02:53:20;15.80;61.60
7218;DHT22;3650;53.580;10.094;2022-09-02T02:55:47;15.80;60.60
7218;DHT22;3650;53.580;10.094;2022-09-02T02:58:19;15.70;61.40
7218;DHT22;3650;53.580;10.094;2022-09-02T03:00:47;15.70;61.70
7218;DHT22;3650;53.580;10.094;2022-09-02T03:03:15;15.70;61.80
7218;DHT22;3650;53.580;10.094;2022-09-02T03:05:45;15.60;62.00
7218;DHT22;3650;53.580;10.094;2022-09-02T03:08:12;15.60;62.60
7218;DHT22;3650;53.580;10.094;2022-09-02T03:10:40;15.60;62.70
7218;DHT22;3650;53.580;10.094;2022-09-02T03:13:09;15.50;62.00
7218;DHT22;3650;53.580;10.094;2022-09-02T03:15:36;15.40;64.20
7218;DHT22;3650;53.580;10.094;2022-09-02T03:18:04;15.40;64.80
7218;DHT22;3650;53.580;10.094;2022-09-02T03:20:31;15.50;65.40
7218;DHT22;3650;53.580;10.094;2022-09-02T03:22:59;15.40;65.50
7218;DHT22;3650;53.580;10.094;2022-09-02T03:25:28;15.40;65.50
7218;DHT22;3650;53.580;10.094;2022-09-02T03:27:55;15.40;66.10
7218;DHT22;3650;53.580;10.094;2022-09-02T03:30:33;15.40;66.00
7218;DHT22;3650;53.580;10.094;2022-09-02T03:33:00;15.50;65.80
7218;DHT22;3650;53.580;10.094;2022-09-02T03:35:28;15.50;65.50
7218;DHT22;3650;53.580;10.094;2022-09-02T03:37:55;15.50;65.20
7218;DHT22;3650;53.580;10.094;2022-09-02T03:40:25;15.40;65.50
7218;DHT22;3650;53.580;10.094;2022-09-02T03:42:53;15.40;66.20
7218;DHT22;3650;53.580;10.094;2022-09-02T03:45:21;15.50;66.60
7218;DHT22;3650;53.580;10.094;2022-09-02T03:47:48;15.50;66.40
7218;DHT22;3650;53.580;10.094;2022-09-02T03:50:19;15.50;66.20
7218;DHT22;3650;53.580;10.094;2022-09-02T03:52:46;15.50;66.10
7218;DHT22;3650;53.580;10.094;2022-09-02T03:55:13;15.50;66.20
7218;DHT22;3650;53.580;10.094;2022-09-02T03:57:41;15.50;66.00
7218;DHT22;3650;53.580;10.094;2022-09-02T04:00:10;15.50;65.90
7218;DHT22;3650;53.580;10.094;2022-09-02T04:02:42;15.50;65.90
7218;DHT22;3650;53.580;10.094;2022-09-02T04:05:10;15.50;65.80
7218;DHT22;3650;53.580;10.094;2022-09-02T04:07:37;15.50;65.70
7218;DHT22;3650;53.580;10.094;2022-09-02T04:10:05;15.50;65.40
7218;DHT22;3650;53.580;10.094;2022-09-02T04:12:33;15.50;66.00
7218;DHT22;3650;53.580;10.094;2022-09-02T04:15:03;15.50;66.10
7218;DHT22;3650;53.580;10.094;2022-09-02T04:17:30;15.50;66.10
7218;DHT22;3650;53.580;10.094;2022-09-02T04:19:57;15.50;66.20
7218;DHT22;3650;53.580;10.094;2022-09-02T04:22:30;15.50;66.20
7218;DHT22;3650;53.580;10.094;2022-09-02T04:24:56;15.50;66.50
7218;DHT22;3650;53.580;10.094;2022-09-02T04:27:23;15.50;66.10
7218;DHT22;3650;53.580;10.094;2022-09-02T04:29:50;15.50;66.20
7218;DHT22;3650;53.580;10.094;2022-09-02T04:32:18;15.60;66.70
7218;DHT22;3650;53.580;10.094;2022-09-02T04:34:46;15.50;66.50
7218;DHT22;3650;53.580;10.094;2022-09-02T04:37:13;15.50;66.50
7218;DHT22;3650;53.580;10.094;2022-09-02T04:39:40;15.50;66.50
7218;DHT22;3650;53.580;10.094;2022-09-02T04:42:07;15.50;66.50
7218;DHT22;3650;53.580;10.094;2022-09-02T04:44:33;15.50;66.60
7218;DHT22;3650;53.580;10.094;2022-09-02T04:47:00;15.50;66.60
7218;DHT22;3650;53.580;10.094;2022-09-02T04:49:28;15.50;66.10
7218;DHT22;3650;53.580;10.094;2022-09-02T04:51:57;15.50;66.60
7218;DHT22;3650;53.580;10.094;2022-09-02T04:54:25;15.50;66.50
7218;DHT22;3650;53.580;10.094;2022-09-02T04:56:52;15.50;66.60
7218;DHT22;3650;53.580;10.094;2022-09-02T04:59:19;15.50;66.60
7218;DHT22;3650;53.580;10.094;2022-09-02T05:01:46;15.50;66.50
7218;DHT22;3650;53.580;10.094;2022-09-02T05:04:14;15.50;66.60
7218;DHT22;3650;53.580;10.094;2022-09-02T05:06:42;15.50;66.60
7218;DHT22;3650;53.580;10.094;2022-09-02T05:09:10;15.50;66.60
7218;DHT22;3650;53.580;10.094;2022-09-02T05:11:37;15.50;67.00
7218;DHT22;3650;53.580;10.094;2022-09-02T05:14:06;15.50;66.60
7218;DHT22;3650;53.580;10.094;2022-09-02T05:16:35;15.60;66.70
7218;DHT22;3650;53.580;10.094;2022-09-02T05:19:04;15.60;67.00
7218;DHT22;3650;53.580;10.094;2022-09-02T05:21:32;15.60;67.10
7218;DHT22;3650;53.580;10.094;2022-09-02T05:24:00;15.70;66.90
7218;DHT22;3650;53.580;10.094;2022-09-02T05:26:27;15.70;66.80
7218;DHT22;3650;53.580;10.094;2022-09-02T05:28:53;15.70;66.80
7218;DHT22;3650;53.580;10.094;2022-09-02T05:31:20;15.80;66.20
7218;DHT22;3650;53.580;10.094;2022-09-02T05:33:47;15.80;66.90
7218;DHT22;3650;53.580;10.094;2022-09-02T05:36:16;15.80;66.50
7218;DHT22;3650;53.580;10.094;2022-09-02T05:38:44;15.80;64.90
7218;DHT22;3650;53.580;10.094;2022-09-02T05:41:14;15.80;67.40
7218;DHT22;3650;53.580;10.094;2022-09-02T05:43:42;15.80;66.90
7218;DHT22;3650;53.580;10.094;2022-09-02T05:46:12;15.80;66.20
7218;DHT22;3650;53.580;10.094;2022-09-02T05:48:44;15.70;66.90
7218;DHT22;3650;53.580;10.094;2022-09-02T05:51:30;15.70;69.30
7218;DHT22;3650;53.580;10.094;2022-09-02T05:54:03;15.60;70.50
7218;DHT22;3650;53.580;10.094;2022-09-02T05:56:31;15.50;72.10
7218;DHT22;3650;53.580;10.094;2022-09-02T05:58:58;15.50;73.60
7218;DHT22;3650;53.580;10.094;2022-09-02T06:01:25;15.40;73.80
7218;DHT22;3650;53.580;10.094;2022-09-02T06:03:52;15.40;73.60
7218;DHT22;3650;53.580;10.094;2022-09-02T06:06:19;15.40;73.60
7218;DHT22;3650;53.580;10.094;2022-09-02T06:08:47;15.40;74.60
7218;DHT22;3650;53.580;10.094;2022-09-02T06:11:14;15.50;74.90
7218;DHT22;3650;53.580;10.094;2022-09-02T06:13:43;15.50;74.20
7218;DHT22;3650;53.580;10.094;2022-09-02T06:16:13;15.50;73.80
7218;DHT22;3650;53.580;10.094;2022-09-02T06:18:40;15.60;75.90
7218;DHT22;3650;53.580;10.094;2022-09-02T06:21:06;15.60;75.50
7218;DHT22;3650;53.580;10.094;2022-09-02T06:23:35;15.50;75.30
7218;DHT22;3650;53.580;10.094;2022-09-02T06:26:04;15.60;75.60
7218;DHT22;3650;53.580;10.094;2022-09-02T06:28:31;15.60;75.20
7218;DHT22;3650;53.580;10.094;2022-09-02T06:30:59;15.80;75.10
7218;DHT22;3650;53.580;10.094;2022-09-02T06:33:31;15.70;74.40
7218;DHT22;3650;53.580;10.094;2022-09-02T06:35:57;15.80;73.10
7218;DHT22;3650;53.580;10.094;2022-09-02T06:38:24;15.80;72.40
7218;DHT22;3650;53.580;10.094;2022-09-02T06:40:53;15.90;72.30
7218;DHT22;3650;53.580;10.094;2022-09-02T06:43:20;16.00;72.50
7218;DHT22;3650;53.580;10.094;2022-09-02T06:45:47;16.00;71.20
7218;DHT22;3650;53.580;10.094;2022-09-02T06:48:15;16.00;70.40
7218;DHT22;3650;53.580;10.094;2022-09-02T06:50:44;16.10;69.00
7218;DHT22;3650;53.580;10.094;2022-09-02T06:53:12;16.20;68.50
7218;DHT22;3650;53.580;10.094;2022-09-02T06:55:43;16.20;68.00
7218;DHT22;3650;53.580;10.094;2022-09-02T06:58:11;16.30;67.30
7218;DHT22;3650;53.580;10.094;2022-09-02T07:00:39;16.30;67.30
7218;DHT22;3650;53.580;10.094;2022-09-02T07:03:07;16.40;67.40
7218;DHT22;3650;53.580;10.094;2022-09-02T07:06:00;16.40;67.40
7218;DHT22;3650;53.580;10.094;2022-09-02T07:08:27;16.50;66.40
7218;DHT22;3650;53.580;10.094;2022-09-02T07:10:53;16.50;66.80
7218;DHT22;3650;53.580;10.094;2022-09-02T07:13:20;16.60;68.60
7218;DHT22;3650;53.580;10.094;2022-09-02T07:15:47;16.60;67.60
7218;DHT22;3650;53.580;10.094;2022-09-02T07:18:13;16.70;67.70
7218;DHT22;3650;53.580;10.094;2022-09-02T07:20:43;16.80;67.70
7218;DHT22;3650;53.580;10.094;2022-09-02T07:23:12;16.80;67.70
7218;DHT22;3650;53.580;10.094;2022-09-02T07:25:39;16.80;67.70
7218;DHT22;3650;53.580;10.094;2022-09-02T07:28:06;16.80;67.00
7218;DHT22;3650;53.580;10.094;2022-09-02T07:30:33;16.90;66.20
7218;DHT22;3650;53.580;10.094;2022-09-02T07:32:59;16.90;66.10
7218;DHT22;3650;53.580;10.094;2022-09-02T07:35:27;17.00;65.40
7218;DHT22;3650;53.580;10.094;2022-09-02T07:37:53;17.00;63.80
7218;DHT22;3650;53.580;10.094;2022-09-02T07:40:21;17.10;62.80
7218;DHT22;3650;53.580;10.094;2022-09-02T07:42:48;17.10;61.60
7218;DHT22;3650;53.580;10.094;2022-09-02T07:45:15;17.20;61.90
7218;DHT22;3650;53.580;10.094;2022-09-02T07:47:42;17.20;61.10
7218;DHT22;3650;53.580;10.094;2022-09-02T07:50:09;17.30;59.80
7218;DHT22;3650;53.580;10.094;2022-09-02T07:52:37;17.30;60.20
7218;DHT22;3650;53.580;10.094;2022-09-02T07:55:05;17.40;60.30
7218;DHT22;3650;53.580;10.094;2022-09-02T07:57:33;17.40;60.20
7218;DHT22;3650;53.580;10.094;2022-09-02T08:00:00;17.50;60.30
7218;DHT22;3650;53.580;10.094;2022-09-02T08:02:26;17.50;60.00
7218;DHT22;3650;53.580;10.094;2022-09-02T08:04:53;17.60;59.50
7218;DHT22;3650;53.580;10.094;2022-09-02T08:07:20;17.60;58.70
7218;DHT22;3650;53.580;10.094;2022-09-02T08:09:49;17.70;57.60
7218;DHT22;3650;53.580;10.094;2022-09-02T08:12:16;17.70;57.40
7218;DHT22;3650;53.580;10.094;2022-09-02T08:14:44;17.80;56.90
7218;DHT22;3650;53.580;10.094;2022-09-02T08:17:10;17.80;56.50
7218;DHT22;3650;53.580;10.094;2022-09-02T08:19:37;17.80;55.50
7218;DHT22;3650;53.580;10.094;2022-09-02T08:22:04;17.90;55.40
7218;DHT22;3650;53.580;10.094;2022-09-02T08:24:31;17.90;54.10
7218;DHT22;3650;53.580;10.094;2022-09-02T08:26:58;18.00;51.80
7218;DHT22;3650;53.580;10.094;2022-09-02T08:29:25;18.00;52.10
7218;DHT22;3650;53.580;10.094;2022-09-02T08:31:53;18.10;50.10
7218;DHT22;3650;53.580;10.094;2022-09-02T08:34:20;18.10;50.50
7218;DHT22;3650;53.580;10.094;2022-09-02T08:36:47;18.20;49.70
7218;DHT22;3650;53.580;10.094;2022-09-02T08:39:14;18.20;49.90
7218;DHT22;3650;53.580;10.094;2022-09-02T08:41:45;18.30;49.90
7218;DHT22;3650;53.580;10.094;2022-09-02T08:44:18;18.30;48.80
7218;DHT22;3650;53.580;10.094;2022-09-02T08:46:47;18.40;49.30
7218;DHT22;3650;53.580;10.094;2022-09-02T08:49:22;18.40;49.30
7218;DHT22;3650;53.580;10.094;2022-09-02T08:51:52;18.40;49.50
7218;DHT22;3650;53.580;10.094;2022-09-02T08:54:26;18.40;48.80
7218;DHT22;3650;53.580;10.094;2022-09-02T08:56:55;18.50;49.10
7218;DHT22;3650;53.580;10.094;2022-09-02T08:59:24;18.50;48.90
7218;DHT22;3650;53.580;10.094;2022-09-02T09:01:57;18.50;48.20
7218;DHT22;3650;53.580;10.094;2022-09-02T09:04:43;18.60;47.10
7218;DHT22;3650;53.580;10.094;2022-09-02T09:07:23;18.60;46.90
7218;DHT22;3650;53.580;10.094;2022-09-02T09:10:11;18.70;46.60
7218;DHT22;3650;53.580;10.094;2022-09-02T09:12:52;18.80;46.50
7218;DHT22;3650;53.580;10.094;2022-09-02T09:15:27;18.80;45.60
7218;DHT22;3650;53.580;10.094;2022-09-02T09:17:57;18.80;45.90
7218;DHT22;3650;53.580;10.094;2022-09-02T09:20:27;18.90;45.60
7218;DHT22;3650;53.580;10.094;2022-09-02T09:22:57;18.90;45.50
7218;DHT22;3650;53.580;10.094;2022-09-02T09:25:24;18.90;44.50
7218;DHT22;3650;53.580;10.094;2022-09-02T09:27:54;19.00;44.80
7218;DHT22;3650;53.580;10.094;2022-09-02T09:30:21;19.00;45.70
7218;DHT22;3650;53.580;10.094;2022-09-02T09:32:51;19.10;44.70
7218;DHT22;3650;53.580;10.094;2022-09-02T09:35:20;19.20;44.70
7218;DHT22;3650;53.580;10.094;2022-09-02T09:37:49;19.10;44.70
7218;DHT22;3650;53.580;10.094;2022-09-02T09:40:30;19.20;44.70
7218;DHT22;3650;53.580;10.094;2022-09-02T09:42:59;19.20;44.50
7218;DHT22;3650;53.580;10.094;2022-09-02T09:45:39;19.20;44.80
7218;DHT22;3650;53.580;10.094;2022-09-02T09:48:21;19.30;44.80
7218;DHT22;3650;53.580;10.094;2022-09-02T09:51:09;19.30;44.80
7218;DHT22;3650;53.580;10.094;2022-09-02T09:53:39;19.40;43.80
7218;DHT22;3650;53.580;10.094;2022-09-02T09:56:07;19.40;43.20
7218;DHT22;3650;53.580;10.094;2022-09-02T09:58:49;19.50;42.40
7218;DHT22;3650;53.580;10.094;2022-09-02T10:01:18;19.50;41.90
7218;DHT22;3650;53.580;10.094;2022-09-02T10:03:48;19.60;41.10
7218;DHT22;3650;53.580;10.094;2022-09-02T10:06:19;19.70;41.10
7218;DHT22;3650;53.580;10.094;2022-09-02T10:08:52;19.70;40.60
7218;DHT22;3650;53.580;10.094;2022-09-02T10:11:22;19.70;40.30
7218;DHT22;3650;53.580;10.094;2022-09-02T10:13:49;19.80;40.50
7218;DHT22;3650;53.580;10.094;2022-09-02T10:16:37;19.80;40.20
7218;DHT22;3650;53.580;10.094;2022-09-02T10:19:11;19.80;39.10
7218;DHT22;3650;53.580;10.094;2022-09-02T10:22:12;19.80;39.00
7218;DHT22;3650;53.580;10.094;2022-09-02T10:24:56;19.90;39.10
7218;DHT22;3650;53.580;10.094;2022-09-02T10:27:33;20.00;40.70
7218;DHT22;3650;53.580;10.094;2022-09-02T10:30:05;20.00;39.20
7218;DHT22;3650;53.580;10.094;2022-09-02T10:32:50;20.10;39.10
7218;DHT22;3650;53.580;10.094;2022-09-02T10:35:28;20.10;39.20
7218;DHT22;3650;53.580;10.094;2022-09-02T10:38:13;20.20;39.20
7218;DHT22;3650;53.580;10.094;2022-09-02T10:40:49;20.30;40.30
7218;DHT22;3650;53.580;10.094;2022-09-02T10:43:27;20.30;39.00
7218;DHT22;3650;53.580;10.094;2022-09-02T10:45:59;20.40;39.10
7218;DHT22;3650;53.580;10.094;2022-09-02T10:48:40;20.50;37.20
7218;DHT22;3650;53.580;10.094;2022-09-02T10:51:14;20.50;36.70
7218;DHT22;3650;53.580;10.094;2022-09-02T10:53:56;20.50;36.00
7218;DHT22;3650;53.580;10.094;2022-09-02T10:56:40;20.50;36.20
7218;DHT22;3650;53.580;10.094;2022-09-02T10:59:13;20.60;36.30
7218;DHT22;3650;53.580;10.094;2022-09-02T11:01:47;20.60;36.00
7218;DHT22;3650;53.580;10.094;2022-09-02T11:04:21;20.60;35.70
7218;DHT22;3650;53.580;10.094;2022-09-02T11:06:55;20.60;35.70
7218;DHT22;3650;53.580;10.094;2022-09-02T11:09:27;20.70;35.30
7218;DHT22;3650;53.580;10.094;2022-09-02T11:12:00;20.70;35.80
7218;DHT22;3650;53.580;10.094;2022-09-02T11:14:33;20.80;35.60
7218;DHT22;3650;53.580;10.094;2022-09-02T11:17:06;20.80;35.60
7218;DHT22;3650;53.580;10.094;2022-09-02T11:19:39;20.90;35.90
7218;DHT22;3650;53.580;10.094;2022-09-02T11:22:18;20.90;35.00
7218;DHT22;3650;53.580;10.094;2022-09-02T11:24:51;21.00;34.90
7218;DHT22;3650;53.580;10.094;2022-09-02T11:27:28;21.00;34.90
7218;DHT22;3650;53.580;10.094;2022-09-02T11:30:01;21.10;34.70
7218;DHT22;3650;53.580;10.094;2022-09-02T11:32:31;21.20;33.50
7218;DHT22;3650;53.580;10.094;2022-09-02T11:35:02;21.30;34.30
7218;DHT22;3650;53.580;10.094;2022-09-02T11:37:36;21.30;34.30
7218;DHT22;3650;53.580;10.094;2022-09-02T11:40:13;21.30;34.10
7218;DHT22;3650;53.580;10.094;2022-09-02T11:43:02;21.30;34.30
7218;DHT22;3650;53.580;10.094;2022-09-02T11:49:20;21.50;33.10
7218;DHT22;3650;53.580;10.094;2022-09-02T11:52:04;21.60;33.00
7218;DHT22;3650;53.580;10.094;2022-09-02T11:54:35;21.60;32.50
7218;DHT22;3650;53.580;10.094;2022-09-02T11:57:04;21.70;33.10
7218;DHT22;3650;53.580;10.094;2022-09-02T12:00:03;21.80;33.70
7218;DHT22;3650;53.580;10.094;2022-09-02T12:02:35;21.90;31.60
7218;DHT22;3650;53.580;10.094;2022-09-02T12:08:09;22.00;32.00
7218;DHT22;3650;53.580;10.094;2022-09-02T12:10:58;22.10;30.60
7218;DHT22;3650;53.580;10.094;2022-09-02T12:13:35;22.20;30.90
7218;DHT22;3650;53.580;10.094;2022-09-02T12:16:35;22.20;30.70
7218;DHT22;3650;53.580;10.094;2022-09-02T12:19:26;22.20;30.00
7218;DHT22;3650;53.580;10.094;2022-09-02T12:25:32;22.10;30.50
7218;DHT22;3650;53.580;10.094;2022-09-02T12:28:24;22.00;30.30
7218;DHT22;3650;53.580;10.094;2022-09-02T12:31:13;21.90;32.40
7218;DHT22;3650;53.580;10.094;2022-09-02T12:33:44;21.90;30.90
7218;DHT22;3650;53.580;10.094;2022-09-02T12:39:47;21.80;31.10
7218;DHT22;3650;53.580;10.094;2022-09-02T12:42:22;21.80;31.70
7218;DHT22;3650;53.580;10.094;2022-09-02T12:45:00;21.70;32.20
7218;DHT22;3650;53.580;10.094;2022-09-02T12:47:45;21.70;30.30
7218;DHT22;3650;53.580;10.094;2022-09-02T12:50:22;21.70;30.60
7218;DHT22;3650;53.580;10.094;2022-09-02T12:53:07;21.70;31.40
7218;DHT22;3650;53.580;10.094;2022-09-02T12:55:37;21.70;32.40
7218;DHT22;3650;53.580;10.094;2022-09-02T12:58:07;21.80;30.80
7218;DHT22;3650;53.580;10.094;2022-09-02T13:00:53;21.90;30.60
7218;DHT22;3650;53.580;10.094;2022-09-02T13:03:52;21.80;30.00
7218;DHT22;3650;53.580;10.094;2022-09-02T13:06:31;21.80;29.60
7218;DHT22;3650;53.580;10.094;2022-09-02T13:09:39;21.80;30.00
7218;DHT22;3650;53.580;10.094;2022-09-02T13:12:25;21.80;31.20
7218;DHT22;3650;53.580;10.094;2022-09-02T13:15:29;21.80;30.80
7218;DHT22;3650;53.580;10.094;2022-09-02T13:18:26;22.00;29.20
7218;DHT22;3650;53.580;10.094;2022-09-02T13:21:29;22.00;29.00
7218;DHT22;3650;53.580;10.094;2022-09-02T13:27:24;22.40;28.10
7218;DHT22;3650;53.580;10.094;2022-09-02T13:30:15;22.40;27.80
7218;DHT22;3650;53.580;10.094;2022-09-02T13:32:44;22.50;27.70
7218;DHT22;3650;53.580;10.094;2022-09-02T13:35:17;22.60;27.30
7218;DHT22;3650;53.580;10.094;2022-09-02T13:37:52;22.60;27.70
7218;DHT22;3650;53.580;10.094;2022-09-02T13:40:23;22.70;27.40
7218;DHT22;3650;53.580;10.094;2022-09-02T13:42:52;22.70;27.70
7218;DHT22;3650;53.580;10.094;2022-09-02T13:45:20;22.80;27.50
7218;DHT22;3650;53.580;10.094;2022-09-02T13:47:49;22.80;27.30
7218;DHT22;3650;53.580;10.094;2022-09-02T13:50:20;22.80;26.50
7218;DHT22;3650;53.580;10.094;2022-09-02T13:52:51;22.80;27.40
7218;DHT22;3650;53.580;10.094;2022-09-02T13:55:19;22.80;27.50
7218;DHT22;3650;53.580;10.094;2022-09-02T13:57:53;22.80;26.60
7218;DHT22;3650;53.580;10.094;2022-09-02T14:00:27;22.70;26.80
7218;DHT22;3650;53.580;10.094;2022-09-02T14:02:57;22.70;26.90
7218;DHT22;3650;53.580;10.094;2022-09-02T14:05:25;22.70;26.80
7218;DHT22;3650;53.580;10.094;2022-09-02T14:08:03;22.60;26.70
7218;DHT22;3650;53.580;10.094;2022-09-02T14:10:32;22.60;26.50
7218;DHT22;3650;53.580;10.094;2022-09-02T14:13:01;22.50;26.50
7218;DHT22;3650;53.580;10.094;2022-09-02T14:15:30;22.50;26.00
7218;DHT22;3650;53.580;10.094;2022-09-02T14:18:11;22.50;25.10
7218;DHT22;3650;53.580;10.094;2022-09-02T14:20:50;22.40;25.30
7218;DHT22;3650;53.580;10.094;2022-09-02T14:23:19;22.40;25.90
7218;DHT22;3650;53.580;10.094;2022-09-02T14:25:50;22.30;26.20
7218;DHT22;3650;53.580;10.094;2022-09-02T14:28:19;22.30;26.20
7218;DHT22;3650;53.580;10.094;2022-09-02T14:30:54;22.20;25.50
7218;DHT22;3650;53.580;10.094;2022-09-02T14:33:35;22.30;24.50
7218;DHT22;3650;53.580;10.094;2022-09-02T14:36:05;22.20;24.30
7218;DHT22;3650;53.580;10.094;2022-09-02T14:38:51;22.30;24.00
7218;DHT22;3650;53.580;10.094;2022-09-02T14:41:21;22.20;24.00
7218;DHT22;3650;53.580;10.094;2022-09-02T14:43:50;22.20;24.70
7218;DHT22;3650;53.580;10.094;2022-09-02T14:46:27;22.20;25.10
7218;DHT22;3650;53.580;10.094;2022-09-02T14:49:01;22.10;25.20
7218;DHT22;3650;53.580;10.094;2022-09-02T14:51:44;22.10;25.30
7218;DHT22;3650;53.580;10.094;2022-09-02T14:54:33;22.00;25.10
7218;DHT22;3650;53.580;10.094;2022-09-02T14:57:00;22.00;25.20
7218;DHT22;3650;53.580;10.094;2022-09-02T14:59:32;21.90;25.80
7218;DHT22;3650;53.580;10.094;2022-09-02T15:01:59;21.90;25.60
7218;DHT22;3650;53.580;10.094;2022-09-02T15:04:26;21.90;25.30
7218;DHT22;3650;53.580;10.094;2022-09-02T15:06:52;21.90;26.20
7218;DHT22;3650;53.580;10.094;2022-09-02T15:09:20;22.00;25.60
7218;DHT22;3650;53.580;10.094;2022-09-02T15:11:53;22.00;25.60
7218;DHT22;3650;53.580;10.094;2022-09-02T15:14:24;22.00;25.70
7218;DHT22;3650;53.580;10.094;2022-09-02T15:16:52;22.00;25.70
7218;DHT22;3650;53.580;10.094;2022-09-02T15:19:19;22.00;25.60
7218;DHT22;3650;53.580;10.094;2022-09-02T15:21:46;22.00;25.30
7218;DHT22;3650;53.580;10.094;2022-09-02T15:24:13;22.00;25.60
7218;DHT22;3650;53.580;10.094;2022-09-02T15:26:41;22.00;26.10
7218;DHT22;3650;53.580;10.094;2022-09-02T15:29:07;22.00;26.50
7218;DHT22;3650;53.580;10.094;2022-09-02T15:31:34;22.00;26.60
7218;DHT22;3650;53.580;10.094;2022-09-02T15:34:04;22.10;26.00
7218;DHT22;3650;53.580;10.094;2022-09-02T15:36:31;22.10;26.20
7218;DHT22;3650;53.580;10.094;2022-09-02T15:38:57;22.00;25.60
7218;DHT22;3650;53.580;10.094;2022-09-02T15:41:25;22.10;25.30
7218;DHT22;3650;53.580;10.094;2022-09-02T15:43:54;22.10;25.70
7218;DHT22;3650;53.580;10.094;2022-09-02T15:46:23;22.10;26.20
7218;DHT22;3650;53.580;10.094;2022-09-02T15:48:51;22.10;26.10
7218;DHT22;3650;53.580;10.094;2022-09-02T15:51:20;22.10;25.80
7218;DHT22;3650;53.580;10.094;2022-09-02T15:53:53;22.10;26.10
7218;DHT22;3650;53.580;10.094;2022-09-02T15:56:21;22.00;25.30
7218;DHT22;3650;53.580;10.094;2022-09-02T15:58:54;22.00;25.30
7218;DHT22;3650;53.580;10.094;2022-09-02T16:01:24;22.00;25.90
7218;DHT22;3650;53.580;10.094;2022-09-02T16:03:50;22.00;25.60
7218;DHT22;3650;53.580;10.094;2022-09-02T16:06:17;22.00;26.00
7218;DHT22;3650;53.580;10.094;2022-09-02T16:08:44;22.00;26.10
7218;DHT22;3650;53.580;10.094;2022-09-02T16:11:10;22.00;26.50
7218;DHT22;3650;53.580;10.094;2022-09-02T16:13:37;21.90;26.00
7218;DHT22;3650;53.580;10.094;2022-09-02T16:16:08;21.90;25.50
7218;DHT22;3650;53.580;10.094;2022-09-02T16:18:36;21.90;25.30
7218;DHT22;3650;53.580;10.094;2022-09-02T16:21:03;21.90;25.40
7218;DHT22;3650;53.580;10.094;2022-09-02T16:23:30;21.90;25.50
7218;DHT22;3650;53.580;10.094;2022-09-02T16:26:12;21.90;25.40
7218;DHT22;3650;53.580;10.094;2022-09-02T16:28:41;22.00;25.40
7218;DHT22;3650;53.580;10.094;2022-09-02T16:31:11;21.90;25.60